createdAt,value
2022-09-06T00:00:51.125Z,4.81
2022-09-06T00:01:49.313Z,4.86
2022-09-06T00:02:47.399Z,4.63
2022-09-06T00:03:45.033Z,4.52
2022-09-06T00:04:42.379Z,4.72
2022-09-06T00:05:41.485Z,3.95
2022-09-06T00:06:38.863Z,4.51
2022-09-06T00:07:36.783Z,5.01
2022-09-06T00:08:34.264Z,4.44
2022-09-06T00:09:31.646Z,4.26
2022-09-06T00:10:30.038Z,4.05
2022-09-06T00:11:27.425Z,4.45
2022-09-06T00:12:25.531Z,4.55
2022-09-06T00:13:22.907Z,4.11
2022-09-06T00:14:20.301Z,4.27
2022-09-06T00:15:17.678Z,4.29
2022-09-06T00:16:17.262Z,4.61
2022-09-06T00:17:14.651Z,4.54
2022-09-06T00:18:12.018Z,4.56
2022-09-06T00:19:09.356Z,4.28
2022-09-06T00:20:09.318Z,4.05
2022-09-06T00:21:14.719Z,4.33
2022-09-06T00:22:12.148Z,4.29
2022-09-06T00:23:09.576Z,4.69
2022-09-06T00:24:07.058Z,4.32
2022-09-06T00:25:05.877Z,4.32
2022-09-06T00:26:04.081Z,4.14
2022-09-06T00:27:01.430Z,4.00
2022-09-06T00:28:03.896Z,4.02
2022-09-06T00:29:01.251Z,4.27
2022-09-06T00:29:58.658Z,4.03
2022-09-06T00:30:56.038Z,4.05
2022-09-06T00:31:53.546Z,4.19
2022-09-06T00:32:51.276Z,4.27
2022-09-06T00:33:49.534Z,4.40
2022-09-06T00:34:46.958Z,4.01
2022-09-06T00:35:47.297Z,4.27
2022-09-06T00:36:44.923Z,3.71
2022-09-06T00:37:42.354Z,3.84
2022-09-06T00:38:40.652Z,4.09
2022-09-06T00:39:38.087Z,4.13
2022-09-06T00:40:35.883Z,3.91
2022-09-06T00:41:33.335Z,4.06
2022-09-06T00:42:30.732Z,3.93
2022-09-06T00:43:28.120Z,3.99
2022-09-06T00:44:25.480Z,4.17
2022-09-06T00:45:25.429Z,4.18
2022-09-06T00:46:26.258Z,3.93
2022-09-06T00:47:23.754Z,4.08
2022-09-06T00:48:22.504Z,3.95
2022-09-06T00:49:28.743Z,4.06
2022-09-06T00:50:27.914Z,4.16
2022-09-06T00:51:28.485Z,4.19
2022-09-06T00:52:27.924Z,3.73
2022-09-06T00:53:26.099Z,4.02
2022-09-06T00:54:24.051Z,4.32
2022-09-06T00:55:22.011Z,4.36
2022-09-06T00:56:19.543Z,3.99
2022-09-06T00:57:18.070Z,4.08
2022-09-06T00:58:15.800Z,4.11
2022-09-06T00:59:13.907Z,4.23
2022-09-06T01:00:11.530Z,4.37
2022-09-06T01:01:08.917Z,3.99
2022-09-06T01:02:09.434Z,4.02
2022-09-06T01:03:07.718Z,3.82
2022-09-06T01:04:08.725Z,4.31
2022-09-06T01:05:06.453Z,4.00
2022-09-06T01:06:15.495Z,3.92
2022-09-06T01:07:26.287Z,4.24
2022-09-06T01:08:23.665Z,4.32
2022-09-06T01:09:33.142Z,4.39
2022-09-06T01:10:45.416Z,4.43
2022-09-06T01:11:45.626Z,4.10
2022-09-06T01:12:42.968Z,4.31
2022-09-06T01:13:43.021Z,3.63
2022-09-06T01:14:58.923Z,3.94
2022-09-06T01:15:59.176Z,4.18
2022-09-06T01:17:02.418Z,4.04
2022-09-06T01:18:18.342Z,3.75
2022-09-06T01:19:31.049Z,3.95
2022-09-06T01:20:46.164Z,4.04
2022-09-06T01:21:52.326Z,4.01
2022-09-06T01:23:08.217Z,3.78
2022-09-06T01:24:25.478Z,3.79
2022-09-06T01:25:41.350Z,3.83
2022-09-06T01:26:47.539Z,3.90
2022-09-06T01:28:06.650Z,4.13
2022-09-06T01:29:10.416Z,4.07
2022-09-06T01:30:13.290Z,3.81
2022-09-06T01:31:23.780Z,3.88
2022-09-06T01:32:21.284Z,3.99
2022-09-06T01:33:39.103Z,3.78
2022-09-06T01:34:50.490Z,4.07
2022-09-06T01:36:01.088Z,3.83
2022-09-06T01:37:10.929Z,4.20
2022-09-06T01:38:08.939Z,4.11
2022-09-06T01:39:06.307Z,3.91
2022-09-06T01:40:04.077Z,3.55
2022-09-06T01:41:01.627Z,3.56
2022-09-06T01:42:04.306Z,3.74
2022-09-06T01:43:06.906Z,3.93
2022-09-06T01:44:06.525Z,4.06
2022-09-06T01:45:09.591Z,3.72
2022-09-06T01:46:19.909Z,3.89
2022-09-06T01:47:53.039Z,3.86
2022-09-06T01:48:56.178Z,3.87
2022-09-06T01:49:53.549Z,3.71
2022-09-06T01:50:53.527Z,4.21
2022-09-06T01:51:50.854Z,3.71
2022-09-06T01:53:00.234Z,3.92
2022-09-06T01:54:16.602Z,3.92
2022-09-06T01:55:32.581Z,3.37
2022-09-06T01:56:45.727Z,3.80
2022-09-06T01:57:43.073Z,3.76
2022-09-06T01:59:03.769Z,3.98
2022-09-06T02:00:10.168Z,4.07
2022-09-06T02:01:19.252Z,3.67
2022-09-06T02:02:28.277Z,3.78
2022-09-06T02:03:31.876Z,3.85
2022-09-06T02:04:38.181Z,3.88
2022-09-06T02:05:47.446Z,4.00
2022-09-06T02:06:52.500Z,3.82
2022-09-06T02:07:52.826Z,4.01
2022-09-06T02:08:54.998Z,3.93
2022-09-06T02:09:56.004Z,4.28
2022-09-06T02:10:59.657Z,3.96
2022-09-06T02:11:59.854Z,3.89
2022-09-06T02:13:01.374Z,3.23
2022-09-06T02:14:04.126Z,3.57
2022-09-06T02:15:14.607Z,3.86
2022-09-06T02:16:16.168Z,4.00
2022-09-06T02:17:17.608Z,3.76
2022-09-06T02:18:30.555Z,3.74
2022-09-06T02:19:35.409Z,3.66
2022-09-06T02:20:36.189Z,3.97
2022-09-06T02:21:38.423Z,3.65
2022-09-06T02:22:41.468Z,3.83
2022-09-06T02:23:40.674Z,3.64
2022-09-06T02:24:40.816Z,3.69
2022-09-06T02:25:40.430Z,4.02
2022-09-06T02:26:41.105Z,3.79
2022-09-06T02:27:38.821Z,3.90
2022-09-06T02:28:36.485Z,3.97
2022-09-06T02:29:35.472Z,3.83
2022-09-06T02:30:37.524Z,3.79
2022-09-06T02:31:42.986Z,3.96
2022-09-06T02:32:45.307Z,4.25
2022-09-06T02:33:46.112Z,4.02
2022-09-06T02:34:46.157Z,3.97
2022-09-06T02:35:51.528Z,3.88
2022-09-06T02:36:49.122Z,4.00
2022-09-06T02:37:46.566Z,3.70
2022-09-06T02:38:45.265Z,3.91
2022-09-06T02:39:42.684Z,3.97
2022-09-06T02:40:40.411Z,3.86
2022-09-06T02:41:39.870Z,3.99
2022-09-06T02:42:37.321Z,4.07
2022-09-06T02:43:34.937Z,3.89
2022-09-06T02:44:32.880Z,4.09
2022-09-06T02:45:30.244Z,3.90
2022-09-06T02:46:27.702Z,3.87
2022-09-06T02:47:25.872Z,3.67
2022-09-06T02:48:23.455Z,3.85
2022-09-06T02:49:20.866Z,4.09
2022-09-06T02:50:18.256Z,4.28
2022-09-06T02:51:15.702Z,4.03
2022-09-06T02:52:13.103Z,4.14
2022-09-06T02:53:12.508Z,4.58
2022-09-06T02:54:10.008Z,4.91
2022-09-06T02:55:07.810Z,4.68
2022-09-06T02:56:05.309Z,4.53
2022-09-06T02:57:02.719Z,4.33
2022-09-06T02:58:00.218Z,4.43
2022-09-06T02:58:57.566Z,4.18
2022-09-06T02:59:54.942Z,4.06
2022-09-06T03:00:53.170Z,4.17
2022-09-06T03:01:50.614Z,3.98
2022-09-06T03:02:48.639Z,4.22
2022-09-06T03:03:46.259Z,3.94
2022-09-06T03:04:43.664Z,4.21
2022-09-06T03:05:41.078Z,4.09
2022-09-06T03:06:38.480Z,3.86
2022-09-06T03:07:35.874Z,4.11
2022-09-06T03:08:34.237Z,3.98
2022-09-06T03:09:31.629Z,4.11
2022-09-06T03:10:29.032Z,4.14
2022-09-06T03:11:26.735Z,4.16
2022-09-06T03:12:24.134Z,4.05
2022-09-06T03:13:22.415Z,4.12
2022-09-06T03:14:20.091Z,3.89
2022-09-06T03:15:17.497Z,3.81
2022-09-06T03:16:15.302Z,4.38
2022-09-06T03:17:12.699Z,4.38
2022-09-06T03:18:10.181Z,4.22
2022-09-06T03:19:07.587Z,4.38
2022-09-06T03:20:05.174Z,4.49
2022-09-06T03:21:03.640Z,4.35
2022-09-06T03:22:01.087Z,4.51
2022-09-06T03:22:58.414Z,4.17
2022-09-06T03:23:56.025Z,4.35
2022-09-06T03:24:53.414Z,4.57
2022-09-06T03:25:51.289Z,4.82
2022-09-06T03:26:48.702Z,4.74
2022-09-06T03:27:46.355Z,4.39
2022-09-06T03:28:43.815Z,4.16
2022-09-06T03:29:41.188Z,4.30
2022-09-06T03:30:39.565Z,4.39
2022-09-06T03:31:37.008Z,4.56
2022-09-06T03:32:34.706Z,4.80
2022-09-06T03:33:32.243Z,4.59
2022-09-06T03:34:29.628Z,4.73
2022-09-06T03:35:26.980Z,4.37
2022-09-06T03:36:24.484Z,4.72
2022-09-06T03:37:22.352Z,5.01
2022-09-06T03:38:20.214Z,4.80
2022-09-06T03:39:17.639Z,4.84
2022-09-06T03:40:15.029Z,4.54
2022-09-06T03:41:12.444Z,4.81
2022-09-06T03:42:09.788Z,4.69
2022-09-06T03:43:07.115Z,4.54
2022-09-06T03:44:04.717Z,4.41
2022-09-06T03:45:02.096Z,4.46
2022-09-06T03:45:59.650Z,4.56
2022-09-06T03:46:57.043Z,4.42
2022-09-06T03:47:54.434Z,4.54
2022-09-06T03:48:51.789Z,4.13
2022-09-06T03:49:49.165Z,4.47
2022-09-06T03:50:50.536Z,4.86
2022-09-06T03:51:47.887Z,4.55
2022-09-06T03:52:45.243Z,4.56
2022-09-06T03:53:42.577Z,4.77
2022-09-06T03:54:40.774Z,4.88
2022-09-06T03:55:38.737Z,4.54
2022-09-06T03:56:36.139Z,4.90
2022-09-06T03:57:33.883Z,4.31
2022-09-06T03:58:32.149Z,4.44
2022-09-06T03:59:29.542Z,4.91
2022-09-06T04:00:26.879Z,5.04
2022-09-06T04:01:24.331Z,4.56
2022-09-06T04:02:21.837Z,4.82
2022-09-06T04:03:20.175Z,4.61
2022-09-06T04:04:17.518Z,4.96
2022-09-06T04:05:16.573Z,4.40
2022-09-06T04:06:13.998Z,4.44
2022-09-06T04:07:11.384Z,5.09
2022-09-06T04:08:08.700Z,4.75
2022-09-06T04:09:06.043Z,5.02
2022-09-06T04:10:04.103Z,4.54
2022-09-06T04:11:01.451Z,4.59
2022-09-06T04:11:58.776Z,4.74
2022-09-06T04:12:56.129Z,4.70
2022-09-06T04:13:53.549Z,4.13
2022-09-06T04:14:50.968Z,4.10
2022-09-06T04:15:48.402Z,4.73
2022-09-06T04:16:45.871Z,4.64
2022-09-06T04:17:45.173Z,4.29
2022-09-06T04:18:42.624Z,4.89
2022-09-06T04:19:40.061Z,4.73
2022-09-06T04:20:37.412Z,4.74
2022-09-06T04:21:34.882Z,4.84
2022-09-06T04:22:32.262Z,5.10
2022-09-06T04:23:29.939Z,4.72
2022-09-06T04:24:27.296Z,4.71
2022-09-06T04:25:24.654Z,4.80
2022-09-06T04:26:22.285Z,5.08
2022-09-06T04:27:19.698Z,5.08
2022-09-06T04:28:18.416Z,5.39
2022-09-06T04:29:15.898Z,5.66
2022-09-06T04:30:13.254Z,6.10
2022-09-06T04:31:10.654Z,6.05
2022-09-06T04:32:08.111Z,6.32
2022-09-06T04:33:05.509Z,5.81
2022-09-06T04:34:02.858Z,5.82
2022-09-06T04:35:00.221Z,5.88
2022-09-06T04:35:59.389Z,5.61
2022-09-06T04:36:56.863Z,5.82
2022-09-06T04:37:54.193Z,6.02
2022-09-06T04:38:51.634Z,7.71
2022-09-06T04:39:49.270Z,8.12
2022-09-06T04:40:46.699Z,8.04
2022-09-06T04:41:44.180Z,7.93
2022-09-06T04:42:41.511Z,7.85
2022-09-06T04:43:39.004Z,7.93
2022-09-06T04:44:36.392Z,7.49
2022-09-06T04:45:33.768Z,7.18
2022-09-06T04:46:31.275Z,7.21
2022-09-06T04:47:28.874Z,6.90
2022-09-06T04:48:26.364Z,6.95
2022-09-06T04:49:23.793Z,6.71
2022-09-06T04:50:21.131Z,6.23
2022-09-06T04:51:18.580Z,6.22
2022-09-06T04:52:16.942Z,6.24
2022-09-06T04:53:14.380Z,7.61
2022-09-06T04:54:11.803Z,8.34
2022-09-06T04:55:09.558Z,7.86
2022-09-06T04:56:07.023Z,8.18
2022-09-06T04:57:04.484Z,7.68
2022-09-06T04:58:01.855Z,7.17
2022-09-06T04:58:59.197Z,7.23
2022-09-06T04:59:56.578Z,7.55
2022-09-06T05:00:54.212Z,6.60
2022-09-06T05:01:51.622Z,6.74
2022-09-06T05:02:49.012Z,6.21
2022-09-06T05:03:47.442Z,6.53
2022-09-06T05:04:44.992Z,6.27
2022-09-06T05:05:42.486Z,6.23
2022-09-06T05:06:41.661Z,6.51
2022-09-06T05:07:39.011Z,6.30
2022-09-06T05:08:37.440Z,5.90
2022-09-06T05:09:35.192Z,6.02
2022-09-06T05:10:32.576Z,6.10
2022-09-06T05:11:29.947Z,5.70
2022-09-06T05:12:27.431Z,5.99
2022-09-06T05:13:24.847Z,6.55
2022-09-06T05:14:22.297Z,7.65
2022-09-06T05:15:20.577Z,8.23
2022-09-06T05:16:19.490Z,7.24
2022-09-06T05:17:19.689Z,7.34
2022-09-06T05:18:20.303Z,7.48
2022-09-06T05:19:20.483Z,7.83
2022-09-06T05:20:19.982Z,8.03
2022-09-06T05:21:20.826Z,7.85
2022-09-06T05:22:21.504Z,7.81
2022-09-06T05:23:22.222Z,7.08
2022-09-06T05:24:22.107Z,7.24
2022-09-06T05:25:21.788Z,6.89
2022-09-06T05:26:24.198Z,6.44
2022-09-06T05:27:24.198Z,5.78
2022-09-06T05:28:24.509Z,6.08
2022-09-06T05:29:27.586Z,5.92
2022-09-06T05:30:28.809Z,6.11
2022-09-06T05:31:37.446Z,6.03
2022-09-06T05:32:37.656Z,5.47
2022-09-06T05:33:37.691Z,5.88
2022-09-06T05:34:38.038Z,5.49
2022-09-06T05:35:38.394Z,5.70
2022-09-06T05:36:42.567Z,5.51
2022-09-06T05:37:42.164Z,5.30
2022-09-06T05:38:43.157Z,5.13
2022-09-06T05:39:40.777Z,5.15
2022-09-06T05:40:39.418Z,5.01
2022-09-06T05:41:38.544Z,5.14
2022-09-06T05:42:43.554Z,5.11
2022-09-06T05:43:41.595Z,5.30
2022-09-06T05:44:40.588Z,5.42
2022-09-06T05:45:38.659Z,4.97
2022-09-06T05:46:43.630Z,5.45
2022-09-06T05:47:41.617Z,5.12
2022-09-06T05:48:39.891Z,5.42
2022-09-06T05:49:37.230Z,4.92
2022-09-06T05:50:34.595Z,5.09
2022-09-06T05:51:32.854Z,5.03
2022-09-06T05:52:30.379Z,5.50
2022-09-06T05:53:27.753Z,5.19
2022-09-06T05:54:25.352Z,4.93
2022-09-06T05:55:22.691Z,5.41
2022-09-06T05:56:20.127Z,5.11
2022-09-06T05:57:17.590Z,5.24
2022-09-06T05:58:14.964Z,5.11
2022-09-06T05:59:12.300Z,4.94
2022-09-06T06:00:12.118Z,5.31
2022-09-06T06:01:18.557Z,5.37
2022-09-06T06:02:16.026Z,5.36
2022-09-06T06:03:13.433Z,5.39
2022-09-06T06:04:10.763Z,5.35
2022-09-06T06:05:08.453Z,5.65
2022-09-06T06:06:05.985Z,5.48
2022-09-06T06:07:03.477Z,5.59
2022-09-06T06:08:00.857Z,6.00
2022-09-06T06:08:59.050Z,5.79
2022-09-06T06:09:56.401Z,6.65
2022-09-06T06:10:58.031Z,7.12
2022-09-06T06:11:55.375Z,7.64
2022-09-06T06:12:52.725Z,7.39
2022-09-06T06:13:50.752Z,7.79
2022-09-06T06:14:48.076Z,9.09
2022-09-06T06:15:45.429Z,8.38
2022-09-06T06:16:42.839Z,8.09
2022-09-06T06:17:40.197Z,8.21
2022-09-06T06:18:37.549Z,9.09
2022-09-06T06:19:35.050Z,8.75
2022-09-06T06:20:32.459Z,8.32
2022-09-06T06:21:31.448Z,9.26
2022-09-06T06:22:28.870Z,9.44
2022-09-06T06:23:26.251Z,9.40
2022-09-06T06:24:23.638Z,9.65
2022-09-06T06:25:26.088Z,9.77
2022-09-06T06:26:24.225Z,10.72
2022-09-06T06:27:21.636Z,9.71
2022-09-06T06:28:19.024Z,9.50
2022-09-06T06:29:16.501Z,9.03
2022-09-06T06:30:18.243Z,9.36
2022-09-06T06:31:16.117Z,9.54
2022-09-06T06:32:13.509Z,8.93
2022-09-06T06:33:10.842Z,9.25
2022-09-06T06:34:09.039Z,9.49
2022-09-06T06:35:06.862Z,8.61
2022-09-06T06:36:07.041Z,8.46
2022-09-06T06:37:04.469Z,8.64
2022-09-06T06:38:01.845Z,8.63
2022-09-06T06:39:00.242Z,8.84
2022-09-06T06:39:58.948Z,9.38
2022-09-06T06:41:00.977Z,9.28
2022-09-06T06:42:00.657Z,9.76
2022-09-06T06:42:57.977Z,9.26
2022-09-06T06:43:59.415Z,9.37
2022-09-06T06:44:56.951Z,8.69
2022-09-06T06:45:54.940Z,8.35
2022-09-06T06:46:52.425Z,8.12
2022-09-06T06:47:50.893Z,7.80
2022-09-06T06:48:52.687Z,8.13
2022-09-06T06:49:52.133Z,7.69
2022-09-06T06:50:49.529Z,7.96
2022-09-06T06:51:47.044Z,7.11
2022-09-06T06:52:44.372Z,7.48
2022-09-06T06:53:41.724Z,7.67
2022-09-06T06:54:39.191Z,7.68
2022-09-06T06:55:36.605Z,7.33
2022-09-06T06:56:35.986Z,8.01
2022-09-06T06:57:33.413Z,7.99
2022-09-06T06:58:30.923Z,7.51
2022-09-06T06:59:28.677Z,8.14
2022-09-06T07:00:28.276Z,8.01
2022-09-06T07:01:27.656Z,7.13
2022-09-06T07:02:25.154Z,7.42
2022-09-06T07:03:22.566Z,6.81
2022-09-06T07:04:19.922Z,6.49
2022-09-06T07:08:12.188Z,7.73
2022-09-06T07:09:09.753Z,7.77
2022-09-06T07:11:25.068Z,7.35
2022-09-06T07:12:22.426Z,7.35
2022-09-06T07:13:19.798Z,7.93
2022-09-06T07:14:17.643Z,7.80
2022-09-06T07:15:15.024Z,8.11
2022-09-06T07:16:17.636Z,7.70
2022-09-06T07:17:15.037Z,7.35
2022-09-06T07:18:12.388Z,7.47
2022-09-06T07:20:27.446Z,7.88
2022-09-06T07:22:33.553Z,7.53
2022-09-06T07:24:48.280Z,7.85
2022-09-06T07:25:45.618Z,7.74
2022-09-06T07:28:07.115Z,8.38
2022-09-06T07:29:05.479Z,8.21
2022-09-06T07:30:02.885Z,7.99
2022-09-06T07:31:00.657Z,7.62
2022-09-06T07:32:14.681Z,7.05
2022-09-06T07:33:12.090Z,7.87
2022-09-06T07:34:09.526Z,8.07
2022-09-06T07:35:07.182Z,8.10
2022-09-06T07:36:05.817Z,7.92
2022-09-06T07:37:03.480Z,8.04
2022-09-06T07:38:01.935Z,7.45
2022-09-06T07:38:59.298Z,7.87
2022-09-06T07:39:56.768Z,7.79
2022-09-06T07:40:58.302Z,7.61
2022-09-06T07:41:55.714Z,7.71
2022-09-06T07:42:56.245Z,7.48
2022-09-06T07:43:54.823Z,7.25
2022-09-06T07:44:52.161Z,7.76
2022-09-06T07:45:57.433Z,7.99
2022-09-06T07:46:55.297Z,8.27
2022-09-06T07:47:59.038Z,8.90
2022-09-06T07:48:56.716Z,9.24
2022-09-06T07:51:13.663Z,7.71
2022-09-06T07:53:31.200Z,9.64
2022-09-06T07:54:30.809Z,8.71
2022-09-06T07:55:28.688Z,8.89
2022-09-06T07:56:26.076Z,9.62
2022-09-06T07:57:23.719Z,9.55
2022-09-06T07:58:21.093Z,10.07
2022-09-06T07:59:18.456Z,9.88
2022-09-06T08:00:15.999Z,10.15
2022-09-06T08:01:19.214Z,8.99
2022-09-06T08:02:18.008Z,9.27
2022-09-06T08:03:15.387Z,9.16
2022-09-06T08:04:14.159Z,9.10
2022-09-06T08:06:31.320Z,9.62
2022-09-06T08:09:51.698Z,10.62
2022-09-06T08:10:51.818Z,11.05
2022-09-06T08:11:51.110Z,11.69
2022-09-06T08:12:48.521Z,11.27
2022-09-06T08:13:48.701Z,10.19
2022-09-06T08:14:46.136Z,9.94
2022-09-06T08:15:43.489Z,9.57
2022-09-06T08:16:40.982Z,10.29
2022-09-06T08:17:38.394Z,9.40
2022-09-06T08:18:36.444Z,9.22
2022-09-06T08:19:34.639Z,9.67
2022-09-06T08:20:32.003Z,9.61
2022-09-06T08:21:32.149Z,9.02
2022-09-06T08:22:33.498Z,9.05
2022-09-06T08:23:30.870Z,9.29
2022-09-06T08:24:28.252Z,8.96
2022-09-06T08:25:25.882Z,9.65
2022-09-06T08:26:24.498Z,9.82
2022-09-06T08:27:21.870Z,9.87
2022-09-06T08:28:19.226Z,9.75
2022-09-06T08:29:16.628Z,8.93
2022-09-06T08:30:14.442Z,8.08
2022-09-06T08:31:14.030Z,8.91
2022-09-06T08:32:11.379Z,8.78
2022-09-06T08:33:08.707Z,8.31
2022-09-06T08:34:06.231Z,8.64
2022-09-06T08:35:03.665Z,8.61
2022-09-06T08:36:01.214Z,8.86
2022-09-06T08:36:58.622Z,8.19
2022-09-06T08:37:57.721Z,8.25
2022-09-06T08:38:55.654Z,7.88
2022-09-06T08:39:53.101Z,8.03
2022-09-06T08:40:51.942Z,8.00
2022-09-06T08:41:56.445Z,8.36
2022-09-06T08:42:53.896Z,8.27
2022-09-06T08:45:21.827Z,7.33
2022-09-06T08:46:23.989Z,7.27
2022-09-06T08:47:21.877Z,6.92
2022-09-06T08:48:19.291Z,7.05
2022-09-06T08:49:16.708Z,6.46
2022-09-06T08:50:14.078Z,6.79
2022-09-06T08:51:20.267Z,6.27
2022-09-06T08:52:20.345Z,6.06
2022-09-06T08:53:19.750Z,6.44
2022-09-06T08:54:35.693Z,6.51
2022-09-06T08:55:36.157Z,6.62
2022-09-06T08:56:43.843Z,6.97
2022-09-06T08:57:52.549Z,6.60
2022-09-06T08:58:49.867Z,6.78
2022-09-06T08:59:47.190Z,6.73
2022-09-06T09:00:58.402Z,6.36
2022-09-06T09:01:55.854Z,6.70
2022-09-06T09:02:59.911Z,6.78
2022-09-06T09:04:03.042Z,6.66
2022-09-06T09:05:04.755Z,6.49
2022-09-06T09:06:05.437Z,6.86
2022-09-06T09:07:28.801Z,6.87
2022-09-06T09:08:31.399Z,6.48
2022-09-06T09:09:33.345Z,6.27
2022-09-06T09:10:34.392Z,6.15
2022-09-06T09:11:36.362Z,6.29
2022-09-06T09:12:40.982Z,5.93
2022-09-06T09:13:54.674Z,6.46
2022-09-06T09:15:01.958Z,6.40
2022-09-06T09:15:59.502Z,5.76
2022-09-06T09:17:03.735Z,6.00
2022-09-06T09:18:01.451Z,5.53
2022-09-06T09:19:01.293Z,5.78
2022-09-06T09:19:58.655Z,5.76
2022-09-06T09:20:57.612Z,5.59
2022-09-06T09:21:55.580Z,6.14
2022-09-06T09:22:53.039Z,6.00
2022-09-06T09:23:53.817Z,6.14
2022-09-06T09:24:52.863Z,5.86
2022-09-06T09:25:52.826Z,5.51
2022-09-06T09:26:50.155Z,6.09
2022-09-06T09:27:49.958Z,5.74
2022-09-06T09:29:05.016Z,5.32
2022-09-06T09:31:34.646Z,5.01
2022-09-06T09:32:43.316Z,6.06
2022-09-06T09:33:41.243Z,5.41
2022-09-06T09:34:39.910Z,5.13
2022-09-06T09:35:41.314Z,5.35
2022-09-06T09:36:39.124Z,5.46
2022-09-06T09:37:55.379Z,5.30
2022-09-06T09:38:57.026Z,5.83
2022-09-06T09:39:56.235Z,6.09
2022-09-06T09:40:56.477Z,6.10
2022-09-06T09:41:54.001Z,5.69
2022-09-06T09:42:52.883Z,5.67
2022-09-06T09:44:02.268Z,5.61
2022-09-06T09:45:02.356Z,5.26
2022-09-06T09:46:17.417Z,5.01
2022-09-06T09:47:24.337Z,4.78
2022-09-06T09:48:29.531Z,5.35
2022-09-06T09:49:28.602Z,6.11
2022-09-06T09:50:34.266Z,5.33
2022-09-06T09:51:33.055Z,49.97
2022-09-06T09:52:31.833Z,20.34
2022-09-06T09:53:29.451Z,6.60
2022-09-06T09:54:30.991Z,5.49
2022-09-06T09:55:29.298Z,5.37
2022-09-06T09:56:26.613Z,5.20
2022-09-06T09:57:24.568Z,5.48
2022-09-06T09:58:32.083Z,5.25
2022-09-06T09:59:37.265Z,5.13
2022-09-06T10:00:39.984Z,5.02
2022-09-06T10:01:38.805Z,4.92
2022-09-06T10:02:40.944Z,4.69
2022-09-06T10:05:04.020Z,4.82
2022-09-06T10:06:02.746Z,4.66
2022-09-06T10:07:21.209Z,4.09
2022-09-06T10:08:18.749Z,4.25
2022-09-06T10:09:19.484Z,4.37
2022-09-06T10:10:27.897Z,4.71
2022-09-06T10:11:57.486Z,5.19
2022-09-06T10:13:06.586Z,4.59
2022-09-06T10:14:10.824Z,5.14
2022-09-06T10:15:31.096Z,4.98
2022-09-06T10:16:43.407Z,4.68
2022-09-06T10:17:51.531Z,4.57
2022-09-06T10:18:52.777Z,4.64
2022-09-06T10:19:50.190Z,4.53
2022-09-06T10:20:47.530Z,4.61
2022-09-06T10:21:45.524Z,4.60
2022-09-06T10:23:00.740Z,4.79
2022-09-06T10:25:34.523Z,4.44
2022-09-06T10:26:37.743Z,5.17
2022-09-06T10:27:36.092Z,4.83
2022-09-06T10:28:41.932Z,4.82
2022-09-06T10:29:48.319Z,4.81
2022-09-06T10:31:02.777Z,4.88
2022-09-06T10:32:10.906Z,4.84
2022-09-06T10:33:15.202Z,4.43
2022-09-06T10:34:12.567Z,4.85
2022-09-06T10:35:16.595Z,4.88
2022-09-06T10:36:19.599Z,4.26
2022-09-06T10:37:26.296Z,4.60
2022-09-06T10:38:32.509Z,4.57
2022-09-06T10:39:44.699Z,4.39
2022-09-06T10:40:53.988Z,4.57
2022-09-06T10:42:03.147Z,4.34
2022-09-06T10:43:01.616Z,4.76
2022-09-06T10:44:17.242Z,4.37
2022-09-06T10:45:28.137Z,4.66
2022-09-06T10:46:26.887Z,4.76
2022-09-06T10:47:31.777Z,5.07
2022-09-06T10:48:32.100Z,4.70
2022-09-06T10:49:32.245Z,4.53
2022-09-06T10:50:41.046Z,4.13
2022-09-06T10:51:45.795Z,4.70
2022-09-06T10:52:47.148Z,4.53
2022-09-06T10:53:53.286Z,4.48
2022-09-06T10:54:53.585Z,3.92
2022-09-06T10:56:01.731Z,4.21
2022-09-06T10:57:05.102Z,4.24
2022-09-06T10:58:22.183Z,4.11
2022-09-06T11:00:46.770Z,3.98
2022-09-06T11:02:03.754Z,3.95
2022-09-06T11:05:57.843Z,3.88
2022-09-06T11:07:01.213Z,3.47
2022-09-06T11:09:29.907Z,3.07
2022-09-06T11:10:30.641Z,3.72
2022-09-06T11:11:40.448Z,3.53
2022-09-06T11:12:40.678Z,3.89
2022-09-06T11:13:38.252Z,3.59
2022-09-06T11:14:37.456Z,4.35
2022-09-06T11:15:57.667Z,3.59
2022-09-06T11:17:01.332Z,3.72
2022-09-06T11:18:06.115Z,3.84
2022-09-06T11:19:15.128Z,3.75
2022-09-06T11:20:23.443Z,3.65
2022-09-06T11:21:32.698Z,3.65
2022-09-06T11:22:35.833Z,3.51
2022-09-06T11:23:39.316Z,3.79
2022-09-06T11:24:36.637Z,3.54
2022-09-06T11:25:52.490Z,3.83
2022-09-06T11:27:11.888Z,3.36
2022-09-06T11:28:15.020Z,3.56
2022-09-06T11:29:18.662Z,3.45
2022-09-06T11:30:17.521Z,3.79
2022-09-06T11:33:06.397Z,3.14
2022-09-06T11:34:10.263Z,3.95
2022-09-06T11:35:20.875Z,3.75
2022-09-06T11:36:38.586Z,3.83
2022-09-06T11:37:43.780Z,3.26
2022-09-06T11:38:42.432Z,3.52
2022-09-06T11:41:02.779Z,3.40
2022-09-06T11:42:01.029Z,3.42
2022-09-06T11:42:59.492Z,3.42
2022-09-06T11:43:57.603Z,3.42
2022-09-06T11:44:57.792Z,3.29
2022-09-06T11:45:55.432Z,3.17
2022-09-06T11:46:52.890Z,2.88
2022-09-06T11:47:51.664Z,3.16
2022-09-06T11:49:01.121Z,2.97
2022-09-06T11:49:58.475Z,3.22
2022-09-06T11:50:56.429Z,3.04
2022-09-06T11:51:53.922Z,2.97
2022-09-06T11:53:12.904Z,2.92
2022-09-06T11:54:16.345Z,2.75
2022-09-06T11:55:22.215Z,2.78
2022-09-06T11:56:30.181Z,3.06
2022-09-06T11:57:27.745Z,3.13
2022-09-06T11:58:30.824Z,2.69
2022-09-06T11:59:38.166Z,2.72
2022-09-06T12:00:35.925Z,2.93
2022-09-06T12:01:34.773Z,2.71
2022-09-06T12:02:36.939Z,2.72
2022-09-06T12:05:00.810Z,2.76
2022-09-06T12:06:16.575Z,3.05
2022-09-06T12:07:14.176Z,3.10
2022-09-06T12:08:14.337Z,2.96
2022-09-06T12:09:32.272Z,3.00
2022-09-06T12:10:29.669Z,3.02
2022-09-06T12:11:46.246Z,3.18
2022-09-06T12:12:46.725Z,3.11
2022-09-06T12:13:47.059Z,3.34
2022-09-06T12:14:49.230Z,2.98
2022-09-06T12:15:52.595Z,3.62
2022-09-06T12:16:56.060Z,3.49
2022-09-06T12:17:53.713Z,3.19
2022-09-06T12:18:51.133Z,3.65
2022-09-06T12:19:48.444Z,3.84
2022-09-06T12:20:48.580Z,3.37
2022-09-06T12:21:47.755Z,3.58
2022-09-06T12:22:48.241Z,3.35
2022-09-06T12:23:45.586Z,3.50
2022-09-06T12:24:45.687Z,3.80
2022-09-06T12:26:02.276Z,3.42
2022-09-06T12:27:18.663Z,3.37
2022-09-06T12:28:32.638Z,3.25
2022-09-06T12:29:30.170Z,3.27
2022-09-06T12:30:38.514Z,3.60
2022-09-06T12:31:52.362Z,3.56
2022-09-06T12:32:52.182Z,3.77
2022-09-06T12:33:50.182Z,3.42
2022-09-06T12:34:47.725Z,3.36
2022-09-06T12:36:03.303Z,3.66
2022-09-06T12:37:08.106Z,3.03
2022-09-06T12:38:07.183Z,3.24
2022-09-06T12:39:09.054Z,3.56
2022-09-06T12:40:07.885Z,3.38
2022-09-06T12:41:08.182Z,3.37
2022-09-06T12:42:05.660Z,3.42
2022-09-06T12:43:04.636Z,3.32
2022-09-06T12:44:05.048Z,3.34
2022-09-06T12:45:04.826Z,3.63
2022-09-06T12:46:07.781Z,3.61
2022-09-06T12:47:10.835Z,3.28
2022-09-06T12:48:10.867Z,3.49
2022-09-06T12:49:10.786Z,3.70
2022-09-06T12:50:08.131Z,3.76
2022-09-06T12:51:07.392Z,3.35
2022-09-06T12:52:13.097Z,3.69
2022-09-06T12:53:25.034Z,3.55
2022-09-06T12:54:24.801Z,3.07
2022-09-06T12:55:25.077Z,3.61
2022-09-06T12:56:24.040Z,3.26
2022-09-06T12:57:26.052Z,3.44
2022-09-06T12:58:28.184Z,3.13
2022-09-06T12:59:27.167Z,3.42
2022-09-06T13:00:26.282Z,3.39
2022-09-06T13:01:30.089Z,3.09
2022-09-06T13:02:35.572Z,3.53
2022-09-06T13:03:38.364Z,3.11
2022-09-06T13:04:42.316Z,2.98
2022-09-06T13:05:42.020Z,3.37
2022-09-06T13:06:42.875Z,3.44
2022-09-06T13:07:46.113Z,3.26
2022-09-06T13:08:48.009Z,3.19
2022-09-06T13:09:49.145Z,3.36
2022-09-06T13:10:48.184Z,3.25
2022-09-06T13:11:49.018Z,2.97
2022-09-06T13:12:50.520Z,3.49
2022-09-06T13:13:49.174Z,3.08
2022-09-06T13:14:46.771Z,3.37
2022-09-06T13:15:47.101Z,3.13
2022-09-06T13:16:50.322Z,3.30
2022-09-06T13:17:47.895Z,3.30
2022-09-06T13:18:45.378Z,2.87
2022-09-06T13:19:49.128Z,3.05
2022-09-06T13:20:57.184Z,2.93
2022-09-06T13:21:54.547Z,3.22
2022-09-06T13:22:52.436Z,3.29
2022-09-06T13:23:51.005Z,3.47
2022-09-06T13:24:49.147Z,2.97
2022-09-06T13:25:50.825Z,3.02
2022-09-06T13:26:48.413Z,3.36
2022-09-06T13:27:50.020Z,2.97
2022-09-06T13:28:47.410Z,3.25
2022-09-06T13:29:54.389Z,3.12
2022-09-06T13:31:14.380Z,3.10
2022-09-06T13:32:14.647Z,3.28
2022-09-06T13:33:23.371Z,3.16
2022-09-06T13:34:31.749Z,3.37
2022-09-06T13:35:31.167Z,3.76
2022-09-06T13:36:32.992Z,3.41
2022-09-06T13:37:33.864Z,3.44
2022-09-06T13:38:33.750Z,3.42
2022-09-06T13:39:32.914Z,3.45
2022-09-06T13:41:16.183Z,3.27
2022-09-06T13:42:31.051Z,3.70
2022-09-06T13:43:29.175Z,3.64
2022-09-06T13:44:30.977Z,3.51
2022-09-06T13:45:29.991Z,3.64
2022-09-06T13:46:27.469Z,3.50
2022-09-06T13:47:29.271Z,3.54
2022-09-06T13:48:29.349Z,3.62
2022-09-06T13:49:28.320Z,3.57
2022-09-06T13:50:27.857Z,3.69
2022-09-06T13:51:26.584Z,3.49
2022-09-06T13:52:23.972Z,3.62
2022-09-06T13:53:21.300Z,3.65
2022-09-06T13:54:18.726Z,3.70
2022-09-06T13:55:17.714Z,3.87
2022-09-06T13:56:16.582Z,3.74
2022-09-06T13:57:14.030Z,3.55
2022-09-06T13:58:11.399Z,3.77
2022-09-06T13:59:11.903Z,3.80
2022-09-06T14:00:09.542Z,3.33
2022-09-06T14:01:09.910Z,3.55